sensor_id;sensor_type;location;lat;lon;timestamp;pressure;altitude;pressure_sealevel;temperature;humidity
13974;BME280;7060;43.770;4.008;2023-01-29T00:00:17;101843.31;;;-0.92;58.14
13974;BME280;7060;43.770;4.008;2023-01-29T00:02:47;101846.06;;;-0.97;58.22
13974;BME280;7060;43.770;4.008;2023-01-29T00:05:16;101848.91;;;-1.03;58.67
13974;BME280;7060;43.770;4.008;2023-01-29T00:07:55;101840.44;;;-1.13;58.38
13974;BME280;7060;43.770;4.008;2023-01-29T00:10:24;101830.38;;;-1.28;58.67
13974;BME280;7060;43.770;4.008;2023-01-29T00:12:53;101850.19;;;-1.18;58.82
13974;BME280;7060;43.770;4.008;2023-01-29T00:15:22;101844.25;;;-1.24;59.39
13974;BME280;7060;43.770;4.008;2023-01-29T00:17:52;101846.88;;;-1.24;59.64
13974;BME280;7060;43.770;4.008;2023-01-29T00:20:20;101850.59;;;-1.31;60.00
13974;BME280;7060;43.770;4.008;2023-01-29T00:22:49;101843.75;;;-1.37;60.20
13974;BME280;7060;43.770;4.008;2023-01-29T00:25:17;101843.72;;;-1.36;60.11
13974;BME280;7060;43.770;4.008;2023-01-29T00:27:46;101845.47;;;-1.36;60.23
13974;BME280;7060;43.770;4.008;2023-01-29T00:30:15;101843.88;;;-1.42;60.23
13974;BME280;7060;43.770;4.008;2023-01-29T00:32:46;101849.22;;;-1.45;60.57
13974;BME280;7060;43.770;4.008;2023-01-29T00:35:16;101844.19;;;-1.54;60.56
13974;BME280;7060;43.770;4.008;2023-01-29T00:37:45;101854.69;;;-1.54;60.65
13974;BME280;7060;43.770;4.008;2023-01-29T00:40:13;101858.91;;;-1.48;60.89
13974;BME280;7060;43.770;4.008;2023-01-29T00:42:43;101855.22;;;-1.41;60.24
13974;BME280;7060;43.770;4.008;2023-01-29T00:45:29;101849.16;;;-1.43;60.16
13974;BME280;7060;43.770;4.008;2023-01-29T00:47:58;101846.47;;;-1.40;60.79
13974;BME280;7060;43.770;4.008;2023-01-29T00:50:28;101842.00;;;-1.37;60.82
13974;BME280;7060;43.770;4.008;2023-01-29T00:52:57;101843.69;;;-1.34;60.47
13974;BME280;7060;43.770;4.008;2023-01-29T00:55:25;101837.44;;;-1.30;60.90
13974;BME280;7060;43.770;4.008;2023-01-29T00:57:54;101832.94;;;-1.26;60.08
13974;BME280;7060;43.770;4.008;2023-01-29T01:00:23;101836.50;;;-1.27;59.98
13974;BME280;7060;43.770;4.008;2023-01-29T01:02:52;101835.75;;;-1.32;59.75
13974;BME280;7060;43.770;4.008;2023-01-29T01:05:36;101835.94;;;-1.39;59.97
13974;BME280;7060;43.770;4.008;2023-01-29T01:08:05;101833.50;;;-1.46;59.67
13974;BME280;7060;43.770;4.008;2023-01-29T01:11:02;101841.56;;;-1.54;59.83
13974;BME280;7060;43.770;4.008;2023-01-29T01:13:30;101839.22;;;-1.63;59.91
13974;BME280;7060;43.770;4.008;2023-01-29T01:15:59;101837.44;;;-1.61;60.73
13974;BME280;7060;43.770;4.008;2023-01-29T01:18:29;101819.38;;;-1.73;60.15
13974;BME280;7060;43.770;4.008;2023-01-29T01:20:59;101838.50;;;-1.68;60.59
13974;BME280;7060;43.770;4.008;2023-01-29T01:23:27;101840.41;;;-1.75;60.80
13974;BME280;7060;43.770;4.008;2023-01-29T01:25:56;101839.63;;;-1.78;61.06
13974;BME280;7060;43.770;4.008;2023-01-29T01:28:25;101843.13;;;-1.79;60.97
13974;BME280;7060;43.770;4.008;2023-01-29T01:30:54;101850.84;;;-1.73;60.75
13974;BME280;7060;43.770;4.008;2023-01-29T01:33:22;101850.28;;;-1.84;60.64
13974;BME280;7060;43.770;4.008;2023-01-29T01:35:51;101848.91;;;-1.99;60.62
13974;BME280;7060;43.770;4.008;2023-01-29T01:38:21;101855.00;;;-1.98;60.81
13974;BME280;7060;43.770;4.008;2023-01-29T01:40:50;101853.31;;;-2.01;61.08
13974;BME280;7060;43.770;4.008;2023-01-29T01:43:20;101855.97;;;-2.03;61.67
13974;BME280;7060;43.770;4.008;2023-01-29T01:45:48;101862.09;;;-2.02;61.61
13974;BME280;7060;43.770;4.008;2023-01-29T01:48:19;101827.59;;;-2.19;61.82
13974;BME280;7060;43.770;4.008;2023-01-29T01:50:51;101869.66;;;-1.90;61.43
13974;BME280;7060;43.770;4.008;2023-01-29T01:53:25;101878.38;;;-1.89;60.90
13974;BME280;7060;43.770;4.008;2023-01-29T01:56:01;101876.66;;;-1.90;60.66
13974;BME280;7060;43.770;4.008;2023-01-29T01:58:33;101876.75;;;-1.95;60.67
13974;BME280;7060;43.770;4.008;2023-01-29T02:01:05;101870.06;;;-2.07;61.47
13974;BME280;7060;43.770;4.008;2023-01-29T02:03:39;101872.81;;;-2.11;61.61
13974;BME280;7060;43.770;4.008;2023-01-29T02:06:28;101873.56;;;-2.08;61.57
13974;BME280;7060;43.770;4.008;2023-01-29T02:09:19;101876.22;;;-2.09;61.52
13974;BME280;7060;43.770;4.008;2023-01-29T02:12:00;101875.47;;;-2.13;61.84
13974;BME280;7060;43.770;4.008;2023-01-29T02:14:30;101876.41;;;-2.15;62.84
13974;BME280;7060;43.770;4.008;2023-01-29T02:17:00;101872.97;;;-2.17;62.52
13974;BME280;7060;43.770;4.008;2023-01-29T02:19:38;101881.56;;;-2.12;62.69
13974;BME280;7060;43.770;4.008;2023-01-29T02:22:31;101878.81;;;-2.08;61.98
13974;BME280;7060;43.770;4.008;2023-01-29T02:28:15;101881.81;;;-2.23;61.69
13974;BME280;7060;43.770;4.008;2023-01-29T02:30:53;101875.06;;;-2.33;62.05
13974;BME280;7060;43.770;4.008;2023-01-29T02:33:33;101883.00;;;-2.36;61.91
13974;BME280;7060;43.770;4.008;2023-01-29T02:36:13;101888.31;;;-2.39;62.11
13974;BME280;7060;43.770;4.008;2023-01-29T02:38:49;101881.28;;;-2.37;62.29
13974;BME280;7060;43.770;4.008;2023-01-29T02:41:25;101877.81;;;-2.38;62.29
13974;BME280;7060;43.770;4.008;2023-01-29T02:44:04;101885.75;;;-2.41;62.34
13974;BME280;7060;43.770;4.008;2023-01-29T02:46:37;101884.81;;;-2.38;62.40
13974;BME280;7060;43.770;4.008;2023-01-29T02:49:12;101872.72;;;-2.44;62.51
13974;BME280;7060;43.770;4.008;2023-01-29T02:51:48;101875.25;;;-2.41;62.59
13974;BME280;7060;43.770;4.008;2023-01-29T02:54:23;101877.84;;;-2.39;62.63
13974;BME280;7060;43.770;4.008;2023-01-29T02:56:56;101841.72;;;-2.63;62.41
13974;BME280;7060;43.770;4.008;2023-01-29T02:59:32;101772.38;;;-3.20;62.21
13974;BME280;7060;43.770;4.008;2023-01-29T03:02:07;101889.69;;;-2.61;62.74
13974;BME280;7060;43.770;4.008;2023-01-29T03:04:42;101894.78;;;-2.55;62.97
13974;BME280;7060;43.770;4.008;2023-01-29T03:07:15;101873.38;;;-2.73;63.40
13974;BME280;7060;43.770;4.008;2023-01-29T03:10:11;101897.44;;;-2.57;63.02
13974;BME280;7060;43.770;4.008;2023-01-29T03:12:43;101900.97;;;-2.59;62.93
13974;BME280;7060;43.770;4.008;2023-01-29T03:15:19;101859.63;;;-2.84;63.13
13974;BME280;7060;43.770;4.008;2023-01-29T03:18:17;101896.00;;;-2.70;63.04
13974;BME280;7060;43.770;4.008;2023-01-29T03:20:50;101905.75;;;-2.78;63.17
13974;BME280;7060;43.770;4.008;2023-01-29T03:23:24;101907.47;;;-2.76;63.15
13974;BME280;7060;43.770;4.008;2023-01-29T03:26:09;101918.78;;;-2.75;63.41
13974;BME280;7060;43.770;4.008;2023-01-29T03:28:57;101916.06;;;-2.71;63.33
13974;BME280;7060;43.770;4.008;2023-01-29T03:31:46;101922.00;;;-2.62;63.40
13974;BME280;7060;43.770;4.008;2023-01-29T03:34:35;101911.44;;;-2.59;63.48
13974;BME280;7060;43.770;4.008;2023-01-29T03:37:11;101922.69;;;-2.54;63.36
13974;BME280;7060;43.770;4.008;2023-01-29T03:39:41;101914.00;;;-2.56;63.43
13974;BME280;7060;43.770;4.008;2023-01-29T03:42:17;101916.53;;;-2.52;63.54
13974;BME280;7060;43.770;4.008;2023-01-29T03:44:53;101919.13;;;-2.50;63.35
13974;BME280;7060;43.770;4.008;2023-01-29T03:47:41;101917.47;;;-2.54;63.47
13974;BME280;7060;43.770;4.008;2023-01-29T03:50:19;101924.47;;;-2.56;63.63
13974;BME280;7060;43.770;4.008;2023-01-29T03:53:03;101919.38;;;-2.62;64.17
13974;BME280;7060;43.770;4.008;2023-01-29T03:55:37;101921.13;;;-2.63;64.14
13974;BME280;7060;43.770;4.008;2023-01-29T03:58:18;101914.28;;;-2.68;64.06
13974;BME280;7060;43.770;4.008;2023-01-29T04:00:52;101916.94;;;-2.70;64.03
13974;BME280;7060;43.770;4.008;2023-01-29T04:03:28;101924.81;;;-2.72;64.25
13974;BME280;7060;43.770;4.008;2023-01-29T04:06:07;101920.66;;;-2.82;64.28
13974;BME280;7060;43.770;4.008;2023-01-29T04:08:58;101907.06;;;-2.99;64.35
13974;BME280;7060;43.770;4.008;2023-01-29T04:11:32;101926.06;;;-2.91;63.88
13974;BME280;7060;43.770;4.008;2023-01-29T04:14:02;101923.44;;;-2.89;64.07
13974;BME280;7060;43.770;4.008;2023-01-29T04:16:34;101915.69;;;-2.92;63.88
13974;BME280;7060;43.770;4.008;2023-01-29T04:19:34;101916.75;;;-3.02;64.38
13974;BME280;7060;43.770;4.008;2023-01-29T04:22:06;101919.34;;;-3.02;64.53
13974;BME280;7060;43.770;4.008;2023-01-29T04:24:39;101784.06;;;-3.81;64.25
13974;BME280;7060;43.770;4.008;2023-01-29T04:27:22;101926.28;;;-3.00;64.42
13974;BME280;7060;43.770;4.008;2023-01-29T04:30:14;101922.03;;;-3.06;64.68
13974;BME280;7060;43.770;4.008;2023-01-29T04:32:56;101932.66;;;-3.15;65.09
13974;BME280;7060;43.770;4.008;2023-01-29T04:35:31;101937.00;;;-3.14;64.88
13974;BME280;7060;43.770;4.008;2023-01-29T04:38:10;101936.22;;;-3.19;64.51
13974;BME280;7060;43.770;4.008;2023-01-29T04:40:47;101938.94;;;-3.23;65.10
13974;BME280;7060;43.770;4.008;2023-01-29T04:43:25;101936.38;;;-3.25;64.82
13974;BME280;7060;43.770;4.008;2023-01-29T04:46:07;101938.03;;;-3.21;64.29
13974;BME280;7060;43.770;4.008;2023-01-29T04:48:46;101932.16;;;-3.33;64.97
13974;BME280;7060;43.770;4.008;2023-01-29T04:51:23;101933.84;;;-3.29;64.88
13974;BME280;7060;43.770;4.008;2023-01-29T04:53:58;101932.16;;;-3.33;65.22
13974;BME280;7060;43.770;4.008;2023-01-29T04:56:34;101939.13;;;-3.32;65.27
13974;BME280;7060;43.770;4.008;2023-01-29T04:59:08;101926.16;;;-3.39;64.98
13974;BME280;7060;43.770;4.008;2023-01-29T05:01:41;101936.59;;;-3.39;65.45
13974;BME280;7060;43.770;4.008;2023-01-29T05:04:24;101936.66;;;-3.42;65.37
13974;BME280;7060;43.770;4.008;2023-01-29T05:06:56;101949.91;;;-3.51;65.68
13974;BME280;7060;43.770;4.008;2023-01-29T05:09:25;101956.81;;;-3.47;65.62
13974;BME280;7060;43.770;4.008;2023-01-29T05:11:54;101953.22;;;-3.43;65.54
13974;BME280;7060;43.770;4.008;2023-01-29T05:14:24;101944.50;;;-3.42;65.35
13974;BME280;7060;43.770;4.008;2023-01-29T05:16:57;101943.63;;;-3.41;65.60
13974;BME280;7060;43.770;4.008;2023-01-29T05:19:29;101948.00;;;-3.43;65.57
13974;BME280;7060;43.770;4.008;2023-01-29T05:21:59;101952.38;;;-3.43;65.91
13974;BME280;7060;43.770;4.008;2023-01-29T05:24:28;101949.81;;;-3.46;65.77
13974;BME280;7060;43.770;4.008;2023-01-29T05:26:56;101961.22;;;-3.50;65.79
13974;BME280;7060;43.770;4.008;2023-01-29T05:29:45;101962.34;;;-3.65;65.49
13974;BME280;7060;43.770;4.008;2023-01-29T05:32:14;101970.28;;;-3.71;66.09
13974;BME280;7060;43.770;4.008;2023-01-29T05:34:43;101978.13;;;-3.71;65.88
13974;BME280;7060;43.770;4.008;2023-01-29T05:37:12;101978.06;;;-3.66;65.95
13974;BME280;7060;43.770;4.008;2023-01-29T05:39:41;101980.66;;;-3.66;65.96
13974;BME280;7060;43.770;4.008;2023-01-29T05:42:10;101987.53;;;-3.59;66.28
13974;BME280;7060;43.770;4.008;2023-01-29T05:44:38;101989.97;;;-3.49;65.95
13974;BME280;7060;43.770;4.008;2023-01-29T05:47:07;101992.59;;;-3.50;65.91
13974;BME280;7060;43.770;4.008;2023-01-29T05:49:35;102000.53;;;-3.55;65.86
13974;BME280;7060;43.770;4.008;2023-01-29T05:52:04;101993.63;;;-3.60;66.19
13974;BME280;7060;43.770;4.008;2023-01-29T05:54:34;102003.25;;;-3.62;66.03
13974;BME280;7060;43.770;4.008;2023-01-29T05:57:03;102005.94;;;-3.67;66.15
13974;BME280;7060;43.770;4.008;2023-01-29T05:59:31;102005.94;;;-3.67;66.12
13974;BME280;7060;43.770;4.008;2023-01-29T06:02:00;102005.97;;;-3.70;66.15
13974;BME280;7060;43.770;4.008;2023-01-29T06:04:28;102003.38;;;-3.70;66.03
13974;BME280;7060;43.770;4.008;2023-01-29T06:06:57;102010.38;;;-3.72;66.05
13974;BME280;7060;43.770;4.008;2023-01-29T06:09:27;102000.75;;;-3.70;66.09
13974;BME280;7060;43.770;4.008;2023-01-29T06:11:57;102010.38;;;-3.72;65.73
13974;BME280;7060;43.770;4.008;2023-01-29T06:14:25;102003.63;;;-3.85;65.91
13974;BME280;7060;43.770;4.008;2023-01-29T06:16:54;102008.97;;;-3.94;66.38
13974;BME280;7060;43.770;4.008;2023-01-29T06:19:22;102013.47;;;-4.02;66.82
13974;BME280;7060;43.770;4.008;2023-01-29T06:21:51;102021.28;;;-4.01;66.98
13974;BME280;7060;43.770;4.008;2023-01-29T06:24:19;102026.44;;;-3.98;66.77
13974;BME280;7060;43.770;4.008;2023-01-29T06:26:48;102032.56;;;-4.00;67.13
13974;BME280;7060;43.770;4.008;2023-01-29T06:29:18;102030.75;;;-3.95;66.73
13974;BME280;7060;43.770;4.008;2023-01-29T06:31:47;102036.81;;;-3.93;67.14
13974;BME280;7060;43.770;4.008;2023-01-29T06:34:15;102031.56;;;-3.92;67.13
13974;BME280;7060;43.770;4.008;2023-01-29T06:36:45;102044.56;;;-3.86;67.05
13974;BME280;7060;43.770;4.008;2023-01-29T06:39:13;102043.56;;;-3.77;66.93
13974;BME280;7060;43.770;4.008;2023-01-29T06:41:43;102032.13;;;-3.72;66.65
13974;BME280;7060;43.770;4.008;2023-01-29T06:44:12;102052.16;;;-3.70;66.49
13974;BME280;7060;43.770;4.008;2023-01-29T06:46:42;102040.97;;;-3.77;66.15
13974;BME280;7060;43.770;4.008;2023-01-29T06:49:11;102046.25;;;-3.83;66.25
13974;BME280;7060;43.770;4.008;2023-01-29T06:51:39;102056.78;;;-3.88;66.20
13974;BME280;7060;43.770;4.008;2023-01-29T06:54:08;102052.47;;;-3.90;66.31
13974;BME280;7060;43.770;4.008;2023-01-29T06:56:37;102056.00;;;-3.94;66.38
13974;BME280;7060;43.770;4.008;2023-01-29T06:59:05;102055.09;;;-3.93;66.67
13974;BME280;7060;43.770;4.008;2023-01-29T07:01:33;102059.41;;;-3.88;66.20
13974;BME280;7060;43.770;4.008;2023-01-29T07:04:04;102057.63;;;-3.86;65.63
13974;BME280;7060;43.770;4.008;2023-01-29T07:06:33;102056.81;;;-3.89;65.82
13974;BME280;7060;43.770;4.008;2023-01-29T07:09:02;102057.66;;;-3.89;65.40
13974;BME280;7060;43.770;4.008;2023-01-29T07:11:32;102068.91;;;-3.82;65.34
13974;BME280;7060;43.770;4.008;2023-01-29T07:14:01;102076.66;;;-3.76;65.58
13974;BME280;7060;43.770;4.008;2023-01-29T07:16:30;102083.63;;;-3.77;65.18
13974;BME280;7060;43.770;4.008;2023-01-29T07:18:58;102084.50;;;-3.78;65.08
13974;BME280;7060;43.770;4.008;2023-01-29T07:21:28;102084.47;;;-3.75;65.17
13974;BME280;7060;43.770;4.008;2023-01-29T07:23:57;102080.13;;;-3.74;64.91
13974;BME280;7060;43.770;4.008;2023-01-29T07:26:25;102077.44;;;-3.71;65.30
13974;BME280;7060;43.770;4.008;2023-01-29T07:28:54;102082.63;;;-3.68;65.48
13974;BME280;7060;43.770;4.008;2023-01-29T07:31:22;102088.13;;;-2.80;63.99
13974;BME280;7060;43.770;4.008;2023-01-29T07:33:51;102083.41;;;-3.09;64.34
13974;BME280;7060;43.770;4.008;2023-01-29T07:36:19;102098.53;;;-3.25;64.50
13974;BME280;7060;43.770;4.008;2023-01-29T07:38:50;102097.69;;;-3.28;65.05
13974;BME280;7060;43.770;4.008;2023-01-29T07:41:18;102104.47;;;-3.18;65.16
13974;BME280;7060;43.770;4.008;2023-01-29T07:43:47;102114.66;;;-3.00;65.13
13974;BME280;7060;43.770;4.008;2023-01-29T07:46:16;102111.78;;;-2.85;65.14
13974;BME280;7060;43.770;4.008;2023-01-29T07:48:44;102116.88;;;-2.77;64.94
13974;BME280;7060;43.770;4.008;2023-01-29T07:51:13;102122.72;;;-2.63;65.04
13974;BME280;7060;43.770;4.008;2023-01-29T07:53:43;102114.44;;;-2.40;64.99
13974;BME280;7060;43.770;4.008;2023-01-29T07:56:13;102122.84;;;-2.24;64.33
13974;BME280;7060;43.770;4.008;2023-01-29T07:58:41;102134.81;;;-2.11;63.96
13974;BME280;7060;43.770;4.008;2023-01-29T08:01:09;102140.78;;;-2.05;63.45
13974;BME280;7060;43.770;4.008;2023-01-29T08:03:38;102140.72;;;-2.02;63.59
13974;BME280;7060;43.770;4.008;2023-01-29T08:06:07;102137.03;;;-1.91;63.71
13974;BME280;7060;43.770;4.008;2023-01-29T08:08:35;102150.63;;;-1.74;63.91
13974;BME280;7060;43.770;4.008;2023-01-29T08:11:04;102143.69;;;-1.37;64.57
13974;BME280;7060;43.770;4.008;2023-01-29T08:13:34;102149.69;;;-0.96;65.04
13974;BME280;7060;43.770;4.008;2023-01-29T08:16:04;102144.22;;;-0.53;64.71
13974;BME280;7060;43.770;4.008;2023-01-29T08:18:32;102142.03;;;-0.06;64.50
13974;BME280;7060;43.770;4.008;2023-01-29T08:21:01;102165.50;;;0.31;63.21
13974;BME280;7060;43.770;4.008;2023-01-29T08:23:30;102167.00;;;0.67;62.46
13974;BME280;7060;43.770;4.008;2023-01-29T08:25:58;102167.84;;;0.96;61.57
13974;BME280;7060;43.770;4.008;2023-01-29T08:28:29;102179.00;;;1.30;61.04
13974;BME280;7060;43.770;4.008;2023-01-29T08:30:59;102178.66;;;1.66;59.94
13974;BME280;7060;43.770;4.008;2023-01-29T08:33:27;102186.97;;;2.03;59.52
13974;BME280;7060;43.770;4.008;2023-01-29T08:36:06;102181.63;;;2.28;58.18
13974;BME280;7060;43.770;4.008;2023-01-29T08:38:35;102173.16;;;2.44;57.76
13974;BME280;7060;43.770;4.008;2023-01-29T08:41:04;102170.66;;;2.62;57.29
13974;BME280;7060;43.770;4.008;2023-01-29T08:43:32;102170.53;;;2.87;56.51
13974;BME280;7060;43.770;4.008;2023-01-29T08:46:05;102172.00;;;3.16;55.75
13974;BME280;7060;43.770;4.008;2023-01-29T08:48:34;102160.28;;;3.43;55.21
13974;BME280;7060;43.770;4.008;2023-01-29T08:51:03;102158.91;;;3.55;55.00
13974;BME280;7060;43.770;4.008;2023-01-29T08:53:31;102160.47;;;3.59;53.99
13974;BME280;7060;43.770;4.008;2023-01-29T08:56:00;102171.88;;;3.61;53.89
13974;BME280;7060;43.770;4.008;2023-01-29T08:58:29;102179.72;;;3.63;54.21
13974;BME280;7060;43.770;4.008;2023-01-29T09:01:06;102173.03;;;3.54;53.48
13974;BME280;7060;43.770;4.008;2023-01-29T09:03:35;102165.38;;;3.48;54.11
13974;BME280;7060;43.770;4.008;2023-01-29T09:06:07;102170.34;;;3.56;53.35
13974;BME280;7060;43.770;4.008;2023-01-29T09:08:37;102173.78;;;3.58;53.54
13974;BME280;7060;43.770;4.008;2023-01-29T09:11:06;102172.91;;;3.57;53.38
13974;BME280;7060;43.770;4.008;2023-01-29T09:13:35;102176.06;;;3.65;53.78
13974;BME280;7060;43.770;4.008;2023-01-29T09:16:05;102181.44;;;3.84;52.68
13974;BME280;7060;43.770;4.008;2023-01-29T09:18:34;102176.50;;;3.95;52.25
13974;BME280;7060;43.770;4.008;2023-01-29T09:21:03;102178.22;;;4.17;51.86
13974;BME280;7060;43.770;4.008;2023-01-29T09:23:32;102183.94;;;4.26;51.45
13974;BME280;7060;43.770;4.008;2023-01-29T09:26:01;102189.69;;;4.36;51.51
13974;BME280;7060;43.770;4.008;2023-01-29T09:28:29;102183.09;;;4.44;52.06
13974;BME280;7060;43.770;4.008;2023-01-29T09:31:00;102185.59;;;4.48;51.04
13974;BME280;7060;43.770;4.008;2023-01-29T09:33:30;102187.31;;;4.49;50.69
13974;BME280;7060;43.770;4.008;2023-01-29T09:36:01;102184.59;;;4.50;50.64
13974;BME280;7060;43.770;4.008;2023-01-29T09:38:30;102190.81;;;4.49;51.11
13974;BME280;7060;43.770;4.008;2023-01-29T09:41:05;102178.34;;;4.51;50.58
13974;BME280;7060;43.770;4.008;2023-01-29T09:43:43;102187.66;;;4.60;50.29
13974;BME280;7060;43.770;4.008;2023-01-29T09:46:17;102180.44;;;4.63;50.07
13974;BME280;7060;43.770;4.008;2023-01-29T09:48:54;102167.75;;;4.51;48.94
13974;BME280;7060;43.770;4.008;2023-01-29T09:51:29;102179.38;;;4.67;47.61
13974;BME280;7060;43.770;4.008;2023-01-29T09:54:11;102181.94;;;4.69;47.97
13974;BME280;7060;43.770;4.008;2023-01-29T09:56:44;102180.78;;;4.74;47.87
13974;BME280;7060;43.770;4.008;2023-01-29T09:59:13;102185.94;;;4.77;48.06
13974;BME280;7060;43.770;4.008;2023-01-29T10:01:54;102186.56;;;4.83;47.50
13974;BME280;7060;43.770;4.008;2023-01-29T10:05:01;102185.50;;;4.87;46.98
13974;BME280;7060;43.770;4.008;2023-01-29T10:07:54;102189.16;;;4.84;47.76
13974;BME280;7060;43.770;4.008;2023-01-29T10:10:40;102186.19;;;4.92;47.82
13974;BME280;7060;43.770;4.008;2023-01-29T10:13:14;102184.94;;;4.99;47.55
13974;BME280;7060;43.770;4.008;2023-01-29T10:18:57;102180.25;;;5.04;46.31
13974;BME280;7060;43.770;4.008;2023-01-29T10:21:45;102175.59;;;5.09;47.10
13974;BME280;7060;43.770;4.008;2023-01-29T10:24:25;102178.75;;;5.17;46.66
13974;BME280;7060;43.770;4.008;2023-01-29T10:26:59;102175.94;;;5.20;46.69
13974;BME280;7060;43.770;4.008;2023-01-29T10:29:28;102179.22;;;5.25;46.37
13974;BME280;7060;43.770;4.008;2023-01-29T10:32:00;102164.97;;;5.28;46.23
13974;BME280;7060;43.770;4.008;2023-01-29T10:34:35;102158.47;;;5.33;45.98
13974;BME280;7060;43.770;4.008;2023-01-29T10:37:15;102161.91;;;5.35;45.54
13974;BME280;7060;43.770;4.008;2023-01-29T10:39:45;102155.88;;;5.32;45.08
13974;BME280;7060;43.770;4.008;2023-01-29T10:42:30;102149.28;;;5.40;46.10
13974;BME280;7060;43.770;4.008;2023-01-29T10:45:11;102148.88;;;5.48;45.34
13974;BME280;7060;43.770;4.008;2023-01-29T10:48:16;102149.59;;;5.52;45.01
13974;BME280;7060;43.770;4.008;2023-01-29T10:50:51;102151.91;;;5.58;45.41
13974;BME280;7060;43.770;4.008;2023-01-29T10:53:44;102138.78;;;5.72;45.64
13974;BME280;7060;43.770;4.008;2023-01-29T10:56:27;102139.09;;;5.83;45.37
13974;BME280;7060;43.770;4.008;2023-01-29T10:59:03;102136.63;;;5.96;44.61
13974;BME280;7060;43.770;4.008;2023-01-29T11:01:36;102124.84;;;6.01;44.01
13974;BME280;7060;43.770;4.008;2023-01-29T11:04:05;102121.16;;;6.04;44.26
13974;BME280;7060;43.770;4.008;2023-01-29T11:06:35;102127.75;;;6.12;44.30
13974;BME280;7060;43.770;4.008;2023-01-29T11:09:13;102130.06;;;6.19;44.58
13974;BME280;7060;43.770;4.008;2023-01-29T11:11:49;102132.25;;;6.28;44.14
13974;BME280;7060;43.770;4.008;2023-01-29T11:14:22;102122.84;;;6.38;43.49
13974;BME280;7060;43.770;4.008;2023-01-29T11:16:52;102113.56;;;6.45;44.02
13974;BME280;7060;43.770;4.008;2023-01-29T11:19:38;102119.91;;;6.58;43.04
13974;BME280;7060;43.770;4.008;2023-01-29T11:22:12;102122.16;;;6.66;42.81
13974;BME280;7060;43.770;4.008;2023-01-29T11:24:43;102111.13;;;6.72;43.41
13974;BME280;7060;43.770;4.008;2023-01-29T11:27:22;102106.94;;;6.84;43.06
13974;BME280;7060;43.770;4.008;2023-01-29T11:29:52;102095.97;;;6.90;41.13
13974;BME280;7060;43.770;4.008;2023-01-29T11:32:26;102098.16;;;6.97;42.28
13974;BME280;7060;43.770;4.008;2023-01-29T11:34:57;102092.97;;;7.10;42.44
13974;BME280;7060;43.770;4.008;2023-01-29T11:37:36;102083.03;;;7.28;42.25
13974;BME280;7060;43.770;4.008;2023-01-29T11:40:35;102075.31;;;7.39;41.40
13974;BME280;7060;43.770;4.008;2023-01-29T11:43:22;102077.41;;;7.48;41.92
13974;BME280;7060;43.770;4.008;2023-01-29T11:45:58;102074.88;;;7.61;41.99
13974;BME280;7060;43.770;4.008;2023-01-29T11:48:37;102077.91;;;7.69;41.39
13974;BME280;7060;43.770;4.008;2023-01-29T11:51:09;102068.56;;;7.76;40.62
13974;BME280;7060;43.770;4.008;2023-01-29T11:53:41;102069.25;;;7.79;40.63
13974;BME280;7060;43.770;4.008;2023-01-29T11:56:24;102070.59;;;7.87;40.95
13974;BME280;7060;43.770;4.008;2023-01-29T11:58:55;102036.84;;;7.73;40.77
13974;BME280;7060;43.770;4.008;2023-01-29T12:01:30;102061.47;;;7.91;40.85
13974;BME280;7060;43.770;4.008;2023-01-29T12:04:00;102058.69;;;7.92;39.74
13974;BME280;7060;43.770;4.008;2023-01-29T12:06:32;102058.50;;;7.95;40.39
13974;BME280;7060;43.770;4.008;2023-01-29T12:09:09;102057.19;;;8.02;40.17
13974;BME280;7060;43.770;4.008;2023-01-29T12:11:43;102056.00;;;8.06;40.87
13974;BME280;7060;43.770;4.008;2023-01-29T12:14:28;101872.44;;;7.07;40.09
13974;BME280;7060;43.770;4.008;2023-01-29T12:17:04;102052.88;;;8.14;40.63
13974;BME280;7060;43.770;4.008;2023-01-29T12:19:38;102041.53;;;8.10;39.85
13974;BME280;7060;43.770;4.008;2023-01-29T12:22:14;102040.44;;;8.00;39.82
13974;BME280;7060;43.770;4.008;2023-01-29T12:24:49;102029.88;;;7.99;39.75
13974;BME280;7060;43.770;4.008;2023-01-29T12:27:24;102023.88;;;7.95;40.56
13974;BME280;7060;43.770;4.008;2023-01-29T12:29:56;102023.41;;;7.89;40.54
13974;BME280;7060;43.770;4.008;2023-01-29T12:32:34;102015.63;;;7.86;40.54
13974;BME280;7060;43.770;4.008;2023-01-29T12:35:11;102009.63;;;7.82;40.58
13974;BME280;7060;43.770;4.008;2023-01-29T12:37:48;101989.41;;;7.65;40.29
13974;BME280;7060;43.770;4.008;2023-01-29T12:40:24;102009.91;;;7.77;40.13
13974;BME280;7060;43.770;4.008;2023-01-29T12:43:01;102011.00;;;7.75;40.40
13974;BME280;7060;43.770;4.008;2023-01-29T12:45:32;102000.06;;;7.65;40.14
13974;BME280;7060;43.770;4.008;2023-01-29T12:48:06;102000.53;;;7.72;40.99
13974;BME280;7060;43.770;4.008;2023-01-29T12:50:36;101997.31;;;7.67;40.89
13974;BME280;7060;43.770;4.008;2023-01-29T12:53:12;101997.88;;;7.72;40.32
13974;BME280;7060;43.770;4.008;2023-01-29T12:55:50;102005.75;;;7.73;40.29
13974;BME280;7060;43.770;4.008;2023-01-29T12:58:26;101998.63;;;7.74;40.66
13974;BME280;7060;43.770;4.008;2023-01-29T13:01:02;102004.69;;;7.76;40.77
13974;BME280;7060;43.770;4.008;2023-01-29T13:03:40;102006.41;;;7.77;40.36
13974;BME280;7060;43.770;4.008;2023-01-29T13:06:15;101991.50;;;7.74;40.62
13974;BME280;7060;43.770;4.008;2023-01-29T13:08:48;101991.38;;;7.76;40.52
13974;BME280;7060;43.770;4.008;2023-01-29T13:11:23;101984.91;;;7.80;40.47
13974;BME280;7060;43.770;4.008;2023-01-29T13:13:58;101986.44;;;7.84;41.25
13974;BME280;7060;43.770;4.008;2023-01-29T13:16:32;101976.53;;;7.86;40.45
13974;BME280;7060;43.770;4.008;2023-01-29T13:19:08;101979.66;;;7.93;40.82
13974;BME280;7060;43.770;4.008;2023-01-29T13:21:43;101975.09;;;7.95;40.59
13974;BME280;7060;43.770;4.008;2023-01-29T13:24:15;101975.84;;;7.97;39.85
13974;BME280;7060;43.770;4.008;2023-01-29T13:26:46;101964.06;;;8.01;40.64
13974;BME280;7060;43.770;4.008;2023-01-29T13:29:22;101976.97;;;8.07;39.89
13974;BME280;7060;43.770;4.008;2023-01-29T13:31:52;101972.38;;;8.09;39.20
13974;BME280;7060;43.770;4.008;2023-01-29T13:34:22;101980.66;;;8.04;39.55
13974;BME280;7060;43.770;4.008;2023-01-29T13:36:55;101980.38;;;8.09;40.41
13974;BME280;7060;43.770;4.008;2023-01-29T13:39:27;101978.44;;;7.98;40.53
13974;BME280;7060;43.770;4.008;2023-01-29T13:41:58;101971.38;;;7.97;39.91
13974;BME280;7060;43.770;4.008;2023-01-29T13:44:31;101974.34;;;7.93;39.82